Suzhou, China
Current Conditions -  °F | °C
As of 4:30 PM on Wednesday 26 Nov 2014 (Local Time) from ZSSS Reporting Station
Clear Clear  
Wind Chill: 61°   Ceiling: Unl
Heat Index: 61°   Visibility: 6mi
Dew Point: 45°   Wind: 7mph
Humidity: 55%   Direction: 50°NE
Pressure: 30.06"   Gusts: NA
Location:  31.32°N, 120.64°E
Report Text: ZSSS 260830Z 05003MPS CAVOK 16/07 Q1018 NOSIG
Loading
Personal Weather Stations






























Interactive Weather Map New forecast layout! Learn more

10-Day Weather Forecast

Advertisements
Track Severe Weather on mobile